North Branch, Texas
Current Conditions -  °F | °C
As of 1:47 PM on Wednesday 17 Dec 2014 (Local Time) from KADS Reporting Station
Overcast Overcast  
Wind Chill: 38°   Ceiling: 4000
Heat Index: 45°   Visibility: 13mi
Dew Point: 34°   Wind: 15mph
Humidity: 66%   Direction: 100°E
Pressure: 30.12"   Gusts: 20mph
Location:  32.9366°N, 96.838°W
Report Text: KADS 171947Z 10013G17KT 13SM OVC040 07/01 A3012
Loading
Personal Weather Stations






























Interactive Weather Map New forecast layout! Learn more

10-Day Weather Forecast

Advertisements
Track Severe Weather on mobile